Time;durP1;ratioP1;P1;durP2;ratioP2;P2;SDS_P1;SDS_P2;PMS_P1;PMS_P2;Temp;Humidity;BMP_temperature;BMP_pressure;BME280_temperature;BME280_humidity;BME280_pressure;Samples;Min_cycle;Max_cycle;Signal;HPM_P1;HPM_P2
2021/09/17 00:00:56;;;;;;;7.00;6.30;;;17.60;99.90;;;;;;5041089;28;20196;-63
2021/09/17 00:03:21;;;;;;;9.73;7.43;;;17.50;99.90;;;;;;5037822;28;20581;-63
2021/09/17 00:05:47;;;;;;;7.47;6.77;;;17.50;99.90;;;;;;5038206;28;20208;-62
2021/09/17 00:08:13;;;;;;;7.90;7.17;;;17.40;99.90;;;;;;5041408;28;20249;-64
2021/09/17 00:10:38;;;;;;;14.07;6.80;;;17.40;99.90;;;;;;5021796;28;20184;-63
2021/09/17 00:13:04;;;;;;;7.77;5.90;;;17.40;99.90;;;;;;5040599;28;20197;-63
2021/09/17 00:15:33;;;;;;;7.13;6.43;;;17.40;99.90;;;;;;5040129;28;20221;-63
2021/09/17 00:17:58;;;;;;;9.70;7.73;;;17.50;99.90;;;;;;5039278;28;20362;-63
2021/09/17 00:20:24;;;;;;;8.33;6.80;;;17.30;99.90;;;;;;5039734;28;20434;-63
2021/09/17 00:22:50;;;;;;;7.67;6.97;;;17.50;99.90;;;;;;5038186;28;20183;-63
2021/09/17 00:25:15;;;;;;;7.80;7.00;;;17.60;99.90;;;;;;5039145;28;20202;-63
2021/09/17 00:27:41;;;;;;;8.00;7.20;;;17.80;99.90;;;;;;5042840;28;20629;-63
2021/09/17 00:30:07;;;;;;;8.63;7.13;;;17.30;99.90;;;;;;5038276;28;20188;-63
2021/09/17 00:32:33;;;;;;;9.10;7.47;;;17.50;99.90;;;;;;5027857;28;20195;-63
2021/09/17 00:34:59;;;;;;;9.43;8.40;;;17.30;99.90;;;;;;5043516;28;20495;-65
2021/09/17 00:37:25;;;;;;;8.03;6.50;;;17.20;99.90;;;;;;5044622;28;20421;-64
2021/09/17 00:39:50;;;;;;;7.73;6.93;;;17.20;99.90;;;;;;5046108;28;20223;-64
2021/09/17 00:42:17;;;;;;;9.23;7.00;;;17.10;99.90;;;;;;5044040;28;20449;-65
2021/09/17 00:44:43;;;;;;;8.83;7.17;;;17.30;99.90;;;;;;5043634;28;20188;-66
2021/09/17 00:47:09;;;;;;;7.30;6.70;;;17.40;99.90;;;;;;5042031;28;20495;-65
2021/09/17 00:49:35;;;;;;;7.60;6.80;;;17.50;99.90;;;;;;5025267;28;20642;-66
2021/09/17 00:52:00;;;;;;;8.00;7.07;;;17.60;99.90;;;;;;5043505;28;20295;-65
2021/09/17 00:54:28;;;;;;;12.07;6.93;;;17.70;99.90;;;;;;5040147;28;20188;-66
2021/09/17 00:56:54;;;;;;;11.30;8.30;;;17.70;99.90;;;;;;5025866;28;20215;-66
2021/09/17 00:59:19;;;;;;;8.13;7.23;;;17.50;99.90;;;;;;5042107;28;20546;-66
2021/09/17 01:01:45;;;;;;;7.90;7.10;;;17.80;99.90;;;;;;5040466;28;20465;-67
2021/09/17 01:04:14;;;;;;;10.03;7.67;;;17.70;99.90;;;;;;5042033;28;20203;-65
2021/09/17 01:06:40;;;;;;;8.60;7.80;;;17.50;99.90;;;;;;5028645;28;20967;-66
2021/09/17 01:09:06;;;;;;;9.53;8.53;;;17.50;99.90;;;;;;5042669;28;20435;-66
2021/09/17 01:11:33;;;;;;;9.50;7.70;;;17.60;99.90;;;;;;5042870;28;20434;-65
2021/09/17 01:14:00;;;;;;;8.57;7.67;;;17.80;99.90;;;;;;5041304;28;20448;-66
2021/09/17 01:16:26;;;;;;;8.00;6.10;;;17.80;99.90;;;;;;5040967;28;20456;-66
2021/09/17 01:18:52;;;;;;;12.00;7.37;;;17.90;99.90;;;;;;5042799;28;20422;-66
2021/09/17 01:21:22;;;;;;;7.73;7.00;;;17.90;99.90;;;;;;5041206;28;20225;-67
2021/09/17 01:23:47;;;;;;;10.80;8.20;;;17.80;99.90;;;;;;5044618;28;20460;-66
2021/09/17 01:26:14;;;;;;;10.23;7.80;;;17.90;99.90;;;;;;5046529;28;20556;-66
2021/09/17 01:28:40;;;;;;;9.03;7.53;;;17.80;99.90;;;;;;5042606;28;20640;-66
2021/09/17 01:31:05;;;;;;;8.37;7.47;;;17.80;99.90;;;;;;5045131;28;20434;-65
2021/09/17 01:33:32;;;;;;;8.20;7.40;;;17.90;99.90;;;;;;5030253;28;20426;-66
2021/09/17 01:36:06;;;;;;;8.73;7.43;;;17.90;99.90;;;;;;5045266;28;20196;-66
2021/09/17 01:38:34;;;;;;;9.30;8.10;;;17.80;99.90;;;;;;5048857;28;20442;-66
2021/09/17 01:41:00;;;;;;;8.97;8.00;;;17.80;99.90;;;;;;5044542;28;20972;-66
2021/09/17 01:43:26;;;;;;;8.73;7.33;;;17.60;99.90;;;;;;5042735;28;20521;-65
2021/09/17 01:45:52;;;;;;;9.00;8.10;;;17.50;99.90;;;;;;5043100;28;21076;-66
2021/09/17 01:48:18;;;;;;;8.23;7.43;;;17.60;99.90;;;;;;5046904;28;20462;-65
2021/09/17 01:50:44;;;;;;;8.50;7.70;;;17.50;99.90;;;;;;5046225;28;20662;-66
2021/09/17 01:53:10;;;;;;;8.17;7.37;;;17.70;99.90;;;;;;5043055;28;20234;-66
2021/09/17 01:55:35;;;;;;;10.70;8.10;;;17.60;99.90;;;;;;5044341;28;20192;-66
2021/09/17 01:58:02;;;;;;;10.13;8.37;;;17.40;99.90;;;;;;5045495;28;20555;-66
2021/09/17 02:00:28;;;;;;;10.13;8.67;;;17.30;99.90;;;;;;5042526;28;20176;-66
2021/09/17 02:02:53;;;;;;;8.70;7.20;;;17.30;99.90;;;;;;5047342;28;20441;-65
2021/09/17 02:05:19;;;;;;;8.50;7.60;;;17.40;99.90;;;;;;5045800;28;20682;-65
2021/09/17 02:07:45;;;;;;;9.20;8.00;;;17.50;99.90;;;;;;5048155;28;20211;-65
2021/09/17 02:10:12;;;;;;;9.73;8.73;;;17.60;99.90;;;;;;5047100;28;20188;-66
2021/09/17 02:12:41;;;;;;;8.80;7.90;;;17.30;99.90;;;;;;5044868;28;20521;-66
2021/09/17 02:15:08;;;;;;;8.20;7.10;;;17.20;99.90;;;;;;5042813;28;20987;-66
2021/09/17 02:17:35;;;;;;;8.53;6.57;;;17.10;99.90;;;;;;5045648;28;20450;-66
2021/09/17 02:20:01;;;;;;;9.23;8.27;;;17.00;99.90;;;;;;5042909;28;20451;-65
2021/09/17 02:22:27;;;;;;;10.37;8.23;;;16.90;99.90;;;;;;5043157;28;20430;-65
2021/09/17 02:24:53;;;;;;;13.00;7.60;;;17.00;99.90;;;;;;5045471;28;20858;-65
2021/09/17 02:27:19;;;;;;;8.47;7.57;;;16.90;99.90;;;;;;5047373;28;20557;-65
2021/09/17 02:29:45;;;;;;;8.23;7.43;;;16.90;99.90;;;;;;5043690;28;20257;-66
2021/09/17 02:32:11;;;;;;;10.93;7.73;;;16.90;99.90;;;;;;5030963;28;20960;-66
2021/09/17 02:34:37;;;;;;;8.70;7.37;;;17.00;99.90;;;;;;5049246;28;20172;-65
2021/09/17 02:37:03;;;;;;;10.10;8.10;;;17.00;99.90;;;;;;5045081;28;20991;-65
2021/09/17 02:39:29;;;;;;;8.80;7.60;;;17.00;99.90;;;;;;5046014;28;20211;-66
2021/09/17 02:41:54;;;;;;;8.73;7.57;;;17.00;99.90;;;;;;5044757;28;20438;-66
2021/09/17 02:44:20;;;;;;;9.83;7.90;;;16.90;99.90;;;;;;5044482;28;20191;-66
2021/09/17 02:46:46;;;;;;;9.10;8.20;;;17.10;99.90;;;;;;5046632;28;20223;-65
2021/09/17 02:49:12;;;;;;;10.00;7.37;;;16.70;99.90;;;;;;5042888;28;20203;-66
2021/09/17 02:51:37;;;;;;;10.10;8.00;;;16.70;99.90;;;;;;5046901;28;20608;-65
2021/09/17 02:54:03;;;;;;;9.27;7.67;;;16.90;99.90;;;;;;5046705;28;21596;-66
2021/09/17 02:56:28;;;;;;;10.07;7.80;;;16.90;99.90;;;;;;5043899;28;20321;-65
2021/09/17 02:58:54;;;;;;;9.93;8.03;;;16.90;99.90;;;;;;5045381;28;20266;-65
2021/09/17 03:01:20;;;;;;;10.40;8.40;;;16.80;99.90;;;;;;5044797;28;20259;-65
2021/09/17 03:03:45;;;;;;;8.57;7.70;;;16.70;99.90;;;;;;5043927;28;20191;-65
2021/09/17 03:06:11;;;;;;;9.07;8.17;;;16.70;99.90;;;;;;5044595;28;20192;-65
2021/09/17 03:08:36;;;;;;;8.93;8.03;;;16.80;99.90;;;;;;5045425;28;20203;-66
2021/09/17 03:11:02;;;;;;;10.77;7.90;;;16.70;99.90;;;;;;5041919;28;20781;-66
2021/09/17 03:13:28;;;;;;;10.40;8.60;;;16.70;99.90;;;;;;5046630;28;20575;-66
2021/09/17 03:15:54;;;;;;;10.20;8.80;;;16.60;99.90;;;;;;5042227;28;20214;-67
2021/09/17 03:18:20;;;;;;;10.63;8.30;;;16.50;99.90;;;;;;5043319;28;20980;-66
2021/09/17 03:20:51;;;;;;;10.33;8.03;;;16.90;99.90;;;;;;5044416;28;20176;-65
2021/09/17 03:23:17;;;;;;;9.33;7.47;;;16.70;99.90;;;;;;5041493;28;20438;-65
2021/09/17 03:25:43;;;;;;;11.00;7.20;;;16.90;99.90;;;;;;5043623;28;20438;-67
2021/09/17 03:28:09;;;;;;;9.23;6.67;;;17.10;99.90;;;;;;5044131;28;20983;-67
2021/09/17 03:30:35;;;;;;;8.10;7.30;;;17.00;99.90;;;;;;5042763;28;21008;-66
2021/09/17 03:33:00;;;;;;;9.10;7.40;;;16.70;99.90;;;;;;5044605;28;20206;-65
2021/09/17 03:35:26;;;;;;;9.57;8.57;;;16.70;99.90;;;;;;5042874;28;20187;-67
2021/09/17 03:37:52;;;;;;;10.77;7.43;;;16.70;99.90;;;;;;5041929;28;20722;-64
2021/09/17 03:40:18;;;;;;;9.30;8.17;;;16.70;99.90;;;;;;5047300;28;20192;-66
2021/09/17 03:42:43;;;;;;;9.30;7.20;;;16.70;99.90;;;;;;5043354;28;20665;-66
2021/09/17 03:45:10;;;;;;;8.80;7.90;;;16.70;99.90;;;;;;5046461;28;20565;-66
2021/09/17 03:47:36;;;;;;;8.47;7.30;;;16.70;99.90;;;;;;5043002;28;20239;-66
2021/09/17 03:50:02;;;;;;;8.03;6.80;;;16.80;99.90;;;;;;5039774;28;20806;-67
2021/09/17 03:52:28;;;;;;;9.20;7.13;;;16.90;99.90;;;;;;5045510;28;20427;-66
2021/09/17 03:54:54;;;;;;;8.57;7.47;;;17.00;99.90;;;;;;5044452;28;20484;-66
2021/09/17 03:57:19;;;;;;;7.47;6.77;;;16.80;99.90;;;;;;5024563;28;20219;-66
2021/09/17 03:59:45;;;;;;;10.87;7.60;;;16.70;99.90;;;;;;5047029;28;20188;-66
2021/09/17 04:02:11;;;;;;;8.27;7.40;;;16.80;99.90;;;;;;5043240;28;20188;-67
2021/09/17 04:04:39;;;;;;;11.43;6.90;;;16.90;99.90;;;;;;5023605;28;20203;-66
2021/09/17 04:07:05;;;;;;;10.57;7.60;;;16.90;99.90;;;;;;5026867;28;20207;-66
2021/09/17 04:09:31;;;;;;;8.23;7.43;;;16.70;99.90;;;;;;5043861;28;20434;-66
2021/09/17 04:11:56;;;;;;;7.00;6.30;;;16.80;99.90;;;;;;5044040;28;20529;-67
2021/09/17 04:14:23;;;;;;;8.33;7.43;;;16.70;99.90;;;;;;5043943;28;20187;-65
2021/09/17 04:16:48;;;;;;;10.17;6.77;;;16.80;99.90;;;;;;5042591;28;20693;-66
2021/09/17 04:19:14;;;;;;;7.77;6.97;;;16.80;99.90;;;;;;5045560;28;20434;-66
2021/09/17 04:21:40;;;;;;;8.00;7.03;;;16.80;99.90;;;;;;5043310;28;20187;-66
2021/09/17 04:24:05;;;;;;;9.37;6.70;;;16.80;99.90;;;;;;5042135;28;20609;-65
2021/09/17 04:26:31;;;;;;;8.37;7.53;;;16.80;99.90;;;;;;5044336;28;20203;-65
2021/09/17 04:28:57;;;;;;;9.27;8.37;;;16.80;99.90;;;;;;5041306;28;20200;-66
2021/09/17 04:31:22;;;;;;;8.27;7.43;;;16.90;99.90;;;;;;5041528;28;20674;-66
2021/09/17 04:33:48;;;;;;;11.53;7.37;;;17.00;99.90;;;;;;5042782;28;20187;-66
2021/09/17 04:36:13;;;;;;;8.67;7.13;;;17.00;99.90;;;;;;5043678;28;20191;-66
2021/09/17 04:38:39;;;;;;;11.90;7.27;;;17.00;99.90;;;;;;5026547;28;20232;-66
2021/09/17 04:41:05;;;;;;;7.30;6.50;;;17.10;99.90;;;;;;5044178;28;20206;-66
2021/09/17 04:43:30;;;;;;;9.03;6.47;;;17.10;99.90;;;;;;5040420;28;20195;-64
2021/09/17 04:45:56;;;;;;;7.40;6.70;;;16.90;99.90;;;;;;5044192;28;20188;-65
2021/09/17 04:48:22;;;;;;;7.50;6.57;;;16.80;99.90;;;;;;5042773;28;20293;-66
2021/09/17 04:50:47;;;;;;;8.77;7.07;;;16.80;99.90;;;;;;5042833;28;20187;-66
2021/09/17 04:53:13;;;;;;;8.10;6.50;;;16.80;99.90;;;;;;5045692;28;20215;-66
2021/09/17 04:55:41;;;;;;;7.83;6.17;;;16.80;99.90;;;;;;5042340;28;20195;-65
2021/09/17 04:58:08;;;;;;;8.30;7.47;;;16.90;99.90;;;;;;5042492;28;20580;-65
2021/09/17 05:00:36;;;;;;;7.03;6.30;;;17.00;99.90;;;;;;5049020;28;20503;-65
2021/09/17 05:03:03;;;;;;;7.53;6.80;;;17.00;99.90;;;;;;5043723;28;20508;-65
2021/09/17 05:05:29;;;;;;;7.60;6.77;;;17.10;99.90;;;;;;5047928;28;20466;-65
2021/09/17 05:07:55;;;;;;;8.80;6.87;;;17.00;99.90;;;;;;5029431;28;21069;-66
2021/09/17 05:10:21;;;;;;;7.30;6.60;;;16.60;99.90;;;;;;5047984;28;20195;-66
2021/09/17 05:12:47;;;;;;;12.43;7.60;;;16.50;99.90;;;;;;5047579;28;20975;-65
2021/09/17 05:15:13;;;;;;;7.47;6.70;;;16.50;99.90;;;;;;5045347;28;20458;-65
2021/09/17 05:17:39;;;;;;;9.13;7.10;;;16.50;99.90;;;;;;5046830;28;20492;-66
2021/09/17 05:20:06;;;;;;;8.80;7.20;;;16.20;99.90;;;;;;5045765;28;20446;-66
2021/09/17 05:22:31;;;;;;;9.73;7.33;;;16.10;99.90;;;;;;5047889;28;20191;-64
2021/09/17 05:24:57;;;;;;;7.30;6.57;;;16.10;99.90;;;;;;5047413;28;21632;-66
2021/09/17 05:27:25;;;;;;;8.53;7.63;;;16.40;99.90;;;;;;5045733;28;20222;-65
2021/09/17 05:29:52;;;;;;;8.57;6.70;;;16.40;99.90;;;;;;5024504;28;20185;-65
2021/09/17 05:32:19;;;;;;;9.20;7.47;;;16.50;99.90;;;;;;5049136;28;20437;-65
2021/09/17 05:34:44;;;;;;;7.53;6.73;;;16.50;99.90;;;;;;5045165;28;20495;-67
2021/09/17 05:37:10;;;;;;;9.47;6.63;;;16.60;99.90;;;;;;5045133;28;20450;-67
2021/09/17 05:39:36;;;;;;;8.10;6.33;;;16.90;99.90;;;;;;5031896;28;20826;-67
2021/09/17 05:42:02;;;;;;;7.67;6.73;;;17.00;99.90;;;;;;5042919;28;20200;-65
2021/09/17 05:44:28;;;;;;;9.23;6.47;;;16.90;99.90;;;;;;5043611;28;21152;-66
2021/09/17 05:46:54;;;;;;;10.10;6.80;;;16.80;99.90;;;;;;5046694;28;20466;-66
2021/09/17 05:49:20;;;;;;;7.10;6.40;;;16.90;99.90;;;;;;5046116;28;20666;-66
2021/09/17 05:51:45;;;;;;;7.93;7.13;;;17.00;99.90;;;;;;5042883;28;20453;-65
2021/09/17 05:54:11;;;;;;;7.20;6.50;;;16.80;99.90;;;;;;5046882;28;20778;-65
2021/09/17 05:56:37;;;;;;;8.00;6.77;;;17.00;99.90;;;;;;5044380;28;20214;-63
2021/09/17 05:59:02;;;;;;;9.10;6.73;;;17.30;99.90;;;;;;5044484;28;20729;-64
2021/09/17 06:01:28;;;;;;;8.90;7.57;;;17.50;99.90;;;;;;5046561;28;20195;-64
2021/09/17 06:03:54;;;;;;;7.83;7.03;;;17.20;99.90;;;;;;5043260;28;20191;-63
2021/09/17 06:06:20;;;;;;;8.50;6.63;;;17.30;99.90;;;;;;5046578;28;20843;-64
2021/09/17 06:08:48;;;;;;;12.70;7.00;;;17.60;99.90;;;;;;5043694;28;20226;-64
2021/09/17 06:11:13;;;;;;;8.50;7.00;;;17.70;99.90;;;;;;5044933;28;20430;-64
2021/09/17 06:13:39;;;;;;;14.67;7.50;;;17.60;99.90;;;;;;5046097;28;20426;-64
2021/09/17 06:16:05;;;;;;;8.80;7.00;;;17.70;99.90;;;;;;5042220;28;20196;-63
2021/09/17 06:18:30;;;;;;;8.33;6.43;;;17.60;99.90;;;;;;5045655;28;20238;-63
2021/09/17 06:20:58;;;;;;;7.77;6.90;;;17.80;99.90;;;;;;5043698;28;20267;-63
2021/09/17 06:23:23;;;;;;;9.50;6.53;;;17.90;99.90;;;;;;5044506;28;20551;-63
2021/09/17 06:25:49;;;;;;;7.90;6.53;;;18.00;99.90;;;;;;5027432;28;20429;-63
2021/09/17 06:28:15;;;;;;;7.67;6.50;;;18.10;99.90;;;;;;5028499;28;20690;-63
2021/09/17 06:30:40;;;;;;;9.87;6.90;;;18.10;99.90;;;;;;5037697;28;20185;-63
2021/09/17 06:33:07;;;;;;;10.23;7.53;;;18.20;99.90;;;;;;5046407;28;20187;-63
2021/09/17 06:35:34;;;;;;;9.00;7.13;;;18.20;99.90;;;;;;5044596;28;20226;-64
2021/09/17 06:37:59;;;;;;;7.00;6.30;;;18.00;99.90;;;;;;5043625;28;20460;-62
2021/09/17 06:40:26;;;;;;;9.10;7.47;;;18.00;99.90;;;;;;5042839;28;20811;-63
2021/09/17 06:42:53;;;;;;;7.70;6.90;;;17.90;99.90;;;;;;5042906;28;20188;-63
2021/09/17 06:45:18;;;;;;;9.93;7.57;;;17.90;99.90;;;;;;5024727;28;20435;-63
2021/09/17 06:47:53;;;;;;;11.53;7.73;;;18.10;99.90;;;;;;5043869;28;20476;-65
2021/09/17 06:50:21;;;;;;;10.90;7.60;;;18.20;99.90;;;;;;5027416;28;20662;-65
2021/09/17 06:52:50;;;;;;;9.73;7.67;;;18.10;99.90;;;;;;5044423;28;20506;-66
2021/09/17 06:55:20;;;;;;;10.90;7.60;;;18.00;99.90;;;;;;5041910;28;20431;-63
2021/09/17 06:57:52;;;;;;;8.80;7.90;;;18.00;99.90;;;;;;5043107;28;20492;-64
2021/09/17 07:00:20;;;;;;;9.53;7.87;;;17.90;99.90;;;;;;5025785;28;20605;-64
2021/09/17 07:02:46;;;;;;;11.30;7.97;;;18.00;99.90;;;;;;5026935;28;20478;-63
2021/09/17 07:05:12;;;;;;;15.83;8.00;;;18.00;99.90;;;;;;5041983;28;20438;-63
2021/09/17 07:07:41;;;;;;;9.57;7.77;;;18.00;99.90;;;;;;5044582;28;20470;-63
2021/09/17 07:10:08;;;;;;;11.80;7.30;;;18.00;99.90;;;;;;5025785;28;20448;-63
2021/09/17 07:12:35;;;;;;;8.10;7.30;;;18.20;99.90;;;;;;5024363;28;20438;-64
2021/09/17 07:15:02;;;;;;;10.33;7.67;;;18.20;99.90;;;;;;5028688;28;20435;-64
2021/09/17 07:17:28;;;;;;;8.63;7.50;;;18.40;99.90;;;;;;5042398;28;20458;-64
2021/09/17 07:19:54;;;;;;;8.73;7.83;;;18.30;99.90;;;;;;5043733;28;20939;-64
2021/09/17 07:22:20;;;;;;;9.57;6.90;;;18.50;99.90;;;;;;5042574;28;20274;-63
2021/09/17 07:24:46;;;;;;;8.80;7.60;;;18.60;99.90;;;;;;5042066;28;20191;-63
2021/09/17 07:27:12;;;;;;;8.37;7.57;;;18.70;99.90;;;;;;5043129;28;20493;-63
2021/09/17 07:29:38;;;;;;;8.30;7.40;;;18.80;99.90;;;;;;5038760;28;20956;-63
2021/09/17 07:32:04;;;;;;;7.17;6.43;;;18.80;99.90;;;;;;5041951;28;20191;-62
2021/09/17 07:34:30;;;;;;;9.40;6.70;;;18.90;99.90;;;;;;5042822;28;20210;-62
2021/09/17 07:36:56;;;;;;;12.47;7.40;;;18.70;99.90;;;;;;5043020;28;21055;-62
2021/09/17 07:39:22;;;;;;;13.60;8.10;;;18.70;99.90;;;;;;5044862;28;20192;-63
2021/09/17 07:41:47;;;;;;;11.33;7.27;;;18.60;99.90;;;;;;5041525;28;20183;-64
2021/09/17 07:44:13;;;;;;;8.77;7.70;;;18.60;99.90;;;;;;5042094;28;20192;-64
2021/09/17 07:46:39;;;;;;;12.83;7.70;;;18.90;99.90;;;;;;5024276;28;20690;-64
2021/09/17 07:49:04;;;;;;;12.17;6.93;;;19.10;99.90;;;;;;5041366;28;20750;-63
2021/09/17 07:51:30;;;;;;;9.53;8.40;;;19.10;99.90;;;;;;5043081;28;20189;-62
2021/09/17 07:53:56;;;;;;;10.73;8.30;;;19.00;99.90;;;;;;5026462;28;20207;-62
2021/09/17 07:56:22;;;;;;;9.50;7.60;;;19.00;99.90;;;;;;5027462;28;20206;-65
2021/09/17 07:58:48;;;;;;;19.83;14.93;;;19.10;99.90;;;;;;5043848;28;20438;-65
2021/09/17 08:01:13;;;;;;;7.90;7.10;;;19.10;99.90;;;;;;5042730;28;20194;-66
2021/09/17 08:03:39;;;;;;;13.50;9.00;;;19.20;99.90;;;;;;5035581;28;20187;-66
2021/09/17 08:06:06;;;;;;;12.53;7.40;;;19.20;99.90;;;;;;5039064;28;20196;-65
2021/09/17 08:08:31;;;;;;;14.60;7.90;;;19.30;99.90;;;;;;5038409;28;20208;-65
2021/09/17 08:10:58;;;;;;;11.50;8.43;;;19.40;99.90;;;;;;5041058;28;20499;-65
2021/09/17 08:13:24;;;;;;;12.40;7.47;;;19.40;99.90;;;;;;5043265;28;20447;-66
2021/09/17 08:15:50;;;;;;;15.67;12.20;;;19.50;99.90;;;;;;5024867;28;20603;-63
2021/09/17 08:18:15;;;;;;;12.20;8.50;;;19.60;99.90;;;;;;5039799;28;20239;-63
2021/09/17 08:20:48;;;;;;;9.80;8.17;;;19.60;99.90;;;;;;5043821;28;20200;-63
2021/09/17 08:23:19;;;;;;;10.40;7.70;;;19.50;99.90;;;;;;5042889;28;20229;-64
2021/09/17 08:25:46;;;;;;;9.27;7.03;;;19.60;99.90;;;;;;5042382;28;20544;-64
2021/09/17 08:28:11;;;;;;;11.80;8.43;;;19.60;99.90;;;;;;5045046;28;20562;-68
2021/09/17 08:30:37;;;;;;;7.60;6.53;;;19.40;99.90;;;;;;5041845;28;20517;-68
2021/09/17 08:33:03;;;;;;;9.20;7.97;;;19.40;99.90;;;;;;5045469;28;20191;-63
2021/09/17 08:35:28;;;;;;;8.17;7.17;;;19.60;99.90;;;;;;5042764;28;20541;-63
2021/09/17 08:37:54;;;;;;;8.93;6.93;;;19.80;99.90;;;;;;5038931;28;20463;-62
2021/09/17 08:40:20;;;;;;;9.30;7.87;;;19.90;99.90;;;;;;5027782;28;20227;-62
2021/09/17 08:42:46;;;;;;;8.73;7.83;;;20.00;99.90;;;;;;5021563;28;20295;-63
2021/09/17 08:45:13;;;;;;;13.30;7.70;;;20.00;99.90;;;;;;5039886;28;20451;-64
2021/09/17 08:47:39;;;;;;;7.90;7.10;;;20.20;99.90;;;;;;5024545;28;20488;-64
2021/09/17 08:50:05;;;;;;;11.27;7.90;;;20.20;99.90;;;;;;5042470;28;20476;-63
2021/09/17 08:52:31;;;;;;;8.00;7.20;;;20.20;99.90;;;;;;5039854;28;20450;-62
2021/09/17 08:54:58;;;;;;;7.90;6.57;;;20.30;99.90;;;;;;5044631;28;20446;-63
2021/09/17 08:57:24;;;;;;;8.30;7.50;;;20.20;99.90;;;;;;5041649;28;20215;-63
2021/09/17 08:59:50;;;;;;;7.37;6.67;;;20.30;99.90;;;;;;5042154;28;20443;-63
2021/09/17 09:02:19;;;;;;;8.47;7.30;;;20.40;99.90;;;;;;5040309;28;20678;-65
2021/09/17 09:05:01;;;;;;;11.37;7.73;;;20.40;99.90;;;;;;5040284;28;20745;-64
2021/09/17 09:07:45;;;;;;;7.70;7.00;;;20.40;99.90;;;;;;5045728;28;20543;-65
2021/09/17 09:10:13;;;;;;;10.03;7.20;;;20.50;99.90;;;;;;5040879;28;20430;-66
2021/09/17 09:12:44;;;;;;;8.53;7.30;;;20.50;99.90;;;;;;5042151;28;20536;-66
2021/09/17 09:15:17;;;;;;;9.43;7.97;;;20.50;99.90;;;;;;5046312;28;20445;-66
2021/09/17 09:17:45;;;;;;;11.97;9.40;;;20.50;99.90;;;;;;5042797;28;20553;-66
2021/09/17 09:20:33;;;;;;;11.33;9.27;;;20.50;99.90;;;;;;5043738;28;20438;-67
2021/09/17 09:23:06;;;;;;;16.30;8.97;;;20.50;99.90;;;;;;5044157;28;20481;-62
2021/09/17 09:25:48;;;;;;;12.30;9.33;;;20.60;99.90;;;;;;5044195;28;20438;-64
2021/09/17 09:28:17;;;;;;;13.40;8.33;;;20.70;99.90;;;;;;5024644;28;20503;-63
2021/09/17 09:30:43;;;;;;;13.23;9.03;;;20.80;99.90;;;;;;5042392;28;20472;-63
2021/09/17 09:33:24;;;;;;;13.63;9.27;;;21.00;99.90;;;;;;5036356;28;20446;-63
2021/09/17 09:35:58;;;;;;;10.40;8.90;;;21.00;99.90;;;;;;5039583;28;20471;-63
2021/09/17 09:38:35;;;;;;;8.60;7.70;;;21.00;99.90;;;;;;5045806;28;21221;-63
2021/09/17 09:41:04;;;;;;;10.03;7.77;;;21.10;99.90;;;;;;5040284;28;20438;-63
2021/09/17 09:43:35;;;;;;;9.77;7.80;;;21.10;99.90;;;;;;5043988;28;21017;-64
2021/09/17 09:46:21;;;;;;;10.50;7.73;;;20.90;99.90;;;;;;5041974;28;20438;-63
2021/09/17 09:48:59;;;;;;;8.93;8.03;;;21.10;99.90;;;;;;5041912;28;21253;-65
2021/09/17 09:51:28;;;;;;;8.93;7.40;;;20.90;99.90;;;;;;5049213;28;20430;-67
2021/09/17 09:53:55;;;;;;;9.20;7.10;;;21.00;99.90;;;;;;5045526;28;20438;-67
2021/09/17 09:56:21;;;;;;;8.87;7.33;;;21.00;99.90;;;;;;5045562;28;21110;-68
2021/09/17 09:58:48;;;;;;;11.60;8.37;;;21.10;99.90;;;;;;5045626;28;20568;-67
2021/09/17 10:01:18;;;;;;;10.60;7.53;;;20.90;99.90;;;;;;5047378;28;21176;-67
2021/09/17 10:03:47;;;;;;;11.30;7.30;;;21.10;99.90;;;;;;5046540;28;20656;-65
2021/09/17 10:06:17;;;;;;;8.73;7.67;;;21.40;99.90;;;;;;5047474;28;20480;-65
2021/09/17 10:08:44;;;;;;;9.20;7.30;;;21.40;99.90;;;;;;5044021;28;20465;-63
2021/09/17 10:11:10;;;;;;;9.07;6.70;;;21.60;99.90;;;;;;5044060;28;20473;-64
2021/09/17 10:13:36;;;;;;;12.63;8.20;;;21.80;99.90;;;;;;5044570;28;20553;-64
2021/09/17 10:16:02;;;;;;;9.00;6.60;;;21.80;99.90;;;;;;5045034;28;20440;-63
2021/09/17 10:18:29;;;;;;;9.77;8.77;;;21.70;99.90;;;;;;5043770;28;20825;-63
2021/09/17 10:20:54;;;;;;;14.20;8.60;;;21.70;99.90;;;;;;5045683;28;20442;-63
2021/09/17 10:23:28;;;;;;;11.87;7.80;;;21.80;99.90;;;;;;5043000;28;20492;-63
2021/09/17 10:26:01;;;;;;;13.83;8.10;;;21.90;99.90;;;;;;5045489;28;20200;-63
2021/09/17 10:28:27;;;;;;;10.67;8.00;;;22.00;99.90;;;;;;5041612;28;20552;-63
2021/09/17 10:31:07;;;;;;;9.10;7.43;;;22.00;99.90;;;;;;5043258;28;20500;-63
2021/09/17 10:33:33;;;;;;;9.10;6.87;;;22.20;99.90;;;;;;5043782;28;20505;-63
2021/09/17 10:35:59;;;;;;;8.33;7.43;;;22.20;99.90;;;;;;5042469;28;22578;-63
2021/09/17 10:38:43;;;;;;;8.50;7.60;;;22.20;99.90;;;;;;5042906;28;20210;-63
2021/09/17 10:41:08;;;;;;;7.83;6.87;;;22.20;99.90;;;;;;5044840;28;20196;-62
2021/09/17 10:43:46;;;;;;;7.23;6.53;;;22.20;99.90;;;;;;5045346;28;20442;-62
2021/09/17 10:46:21;;;;;;;7.97;7.17;;;22.30;99.90;;;;;;5042452;28;20560;-62
2021/09/17 10:48:52;;;;;;;9.67;6.83;;;22.40;99.90;;;;;;5041406;28;20955;-67
2021/09/17 10:51:33;;;;;;;7.70;6.13;;;22.30;99.90;;;;;;5043126;28;20445;-68
2021/09/17 10:54:01;;;;;;;9.40;6.60;;;22.40;99.90;;;;;;5043834;28;20790;-63
2021/09/17 10:56:28;;;;;;;6.60;5.40;;;22.00;99.90;;;;;;5044687;28;20477;-63
2021/09/17 10:59:14;;;;;;;7.33;5.77;;;21.80;99.90;;;;;;5043519;28;20453;-62
2021/09/17 11:01:52;;;;;;;9.40;6.30;;;22.20;99.90;;;;;;5043502;28;20435;-63
2021/09/17 11:04:23;;;;;;;6.37;5.77;;;22.50;99.90;;;;;;5043348;28;20438;-62
2021/09/17 11:06:50;;;;;;;7.13;5.40;;;22.60;99.90;;;;;;5042525;28;20960;-67
2021/09/17 11:09:40;;;;;;;6.80;5.90;;;22.80;99.90;;;;;;5044275;28;20940;-67
2021/09/17 11:12:16;;;;;;;9.13;4.70;;;22.90;99.90;;;;;;5046360;28;20471;-63
2021/09/17 11:14:42;;;;;;;5.87;5.20;;;22.90;99.90;;;;;;5043604;28;20446;-63
2021/09/17 11:17:07;;;;;;;7.10;5.03;;;22.90;99.90;;;;;;5044072;28;20968;-66
2021/09/17 11:19:33;;;;;;;6.40;5.80;;;22.90;99.90;;;;;;5045564;28;20269;-66
2021/09/17 11:22:02;;;;;;;8.33;6.17;;;23.00;99.90;;;;;;5044415;28;20199;-67
2021/09/17 11:24:29;;;;;;;5.03;4.27;;;23.10;99.90;;;;;;5044221;28;20541;-63
2021/09/17 11:26:57;;;;;;;5.83;4.33;;;23.20;99.90;;;;;;5025989;28;20462;-63
2021/09/17 11:29:25;;;;;;;5.00;3.87;;;23.40;99.90;;;;;;5043454;28;20422;-66
2021/09/17 11:31:58;;;;;;;11.23;10.03;;;23.50;99.90;;;;;;5042475;28;20439;-62
2021/09/17 11:34:32;;;;;;;14.73;13.10;;;23.60;99.90;;;;;;5048428;28;20425;-65
2021/09/17 11:37:03;;;;;;;7.37;6.53;;;23.80;99.90;;;;;;5025086;28;20552;-66
2021/09/17 11:39:37;;;;;;;9.40;5.20;;;23.90;99.90;;;;;;5042107;28;20476;-63
2021/09/17 11:42:13;;;;;;;6.87;6.17;;;23.50;99.90;;;;;;5039786;28;21261;-64
2021/09/17 11:44:46;;;;;;;6.10;4.73;;;23.50;99.90;;;;;;5043423;28;20438;-67
2021/09/17 11:47:22;;;;;;;5.70;5.13;;;23.60;99.90;;;;;;5039206;28;21067;-64
2021/09/17 11:49:48;;;;;;;7.40;6.70;;;23.80;99.90;;;;;;5042413;28;20799;-63
2021/09/17 11:52:17;;;;;;;6.27;5.67;;;23.90;99.90;;;;;;5043454;28;20444;-62
2021/09/17 11:54:55;;;;;;;6.37;5.40;;;24.20;99.90;;;;;;5047042;28;20774;-62
2021/09/17 11:57:20;;;;;;;5.10;3.90;;;24.70;99.90;;;;;;5043106;28;20470;-63
2021/09/17 11:59:46;;;;;;;4.40;3.80;;;25.00;99.90;;;;;;5043486;28;20437;-62
2021/09/17 12:02:22;;;;;;;4.00;3.70;;;25.10;99.90;;;;;;5041761;28;20250;-63
2021/09/17 12:04:57;;;;;;;3.27;2.90;;;25.60;99.90;;;;;;5025503;28;20540;-63
2021/09/17 12:07:24;;;;;;;4.60;3.50;;;26.50;99.90;;;;;;5022357;28;21070;-63
2021/09/17 12:09:51;;;;;;;4.03;3.63;;;26.90;99.90;;;;;;5043709;28;20445;-63
2021/09/17 12:12:17;;;;;;;4.03;2.80;;;27.20;99.90;;;;;;5044532;28;20430;-63
2021/09/17 12:14:55;;;;;;;3.90;3.50;;;27.80;99.90;;;;;;5040331;28;20773;-63
2021/09/17 12:17:21;;;;;;;3.40;3.10;;;28.10;99.50;;;;;;5041855;28;20548;-64
2021/09/17 12:19:54;;;;;;;3.77;3.43;;;28.40;99.20;;;;;;5041827;28;20501;-63
2021/09/17 12:22:46;;;;;;;3.73;3.27;;;28.10;99.40;;;;;;5041267;28;20846;-63
2021/09/17 12:25:19;;;;;;;2.90;2.70;;;28.50;97.40;;;;;;5024124;28;20452;-63
2021/09/17 12:28:05;;;;;;;2.87;2.67;;;28.40;93.40;;;;;;5025822;28;20561;-62
2021/09/17 12:30:35;;;;;;;3.10;2.80;;;28.80;91.90;;;;;;5039471;28;20836;-62
2021/09/17 12:33:05;;;;;;;4.00;3.60;;;29.30;92.60;;;;;;5043256;28;20442;-62
2021/09/17 12:35:31;;;;;;;2.87;2.67;;;29.90;90.90;;;;;;5041985;28;21105;-62
2021/09/17 12:37:58;;;;;;;3.40;2.40;;;30.30;88.60;;;;;;5041809;28;20476;-62
2021/09/17 12:40:29;;;;;;;2.70;2.50;;;29.50;79.70;;;;;;5044222;28;20435;-63
2021/09/17 12:43:03;;;;;;;3.50;2.77;;;29.90;80.40;;;;;;5044918;28;20940;-63
2021/09/17 12:45:31;;;;;;;2.43;2.23;;;29.90;78.50;;;;;;5042468;28;20540;-62